AMQ586 EPKT-LBWN
Flight info
| Callsign | AMQ586 |
|---|---|
| Flight time | 1h 39m |
| Altitude | 35000 |
| Route | BABKO DCT EVRIK DCT RASUB DCT BULEN L744 EXIGA |
| Aircraft | A321/M-SDE3FGHIRWY/LB1 |
Departure
| Time | 2026-05-05 21:35 |
|---|---|
| Airport | Katowice Wojciech Korfanty International Airport (EPKT) |
Arrival
| Time | 2026-05-05 23:14 |
|---|---|
| Airport | Varna Airport (LBWN) |
| Time | Latitude | Longitude | Altitude | Speed | Heading |
|---|---|---|---|---|---|
| 2026-05-05 20:48 | 50.47156 | 19.08571 | 1000 ft | 0 kts | 174° |
| 2026-05-05 21:25 | 50.47160 | 19.08571 | 1000 ft | 2 kts | 175° |
| 2026-05-05 21:25 | 50.47178 | 19.08569 | 998 ft | 3 kts | 179° |
| 2026-05-05 21:25 | 50.47198 | 19.08568 | 996 ft | 2 kts | 177° |
| 2026-05-05 21:25 | 50.47215 | 19.08566 | 997 ft | 3 kts | 159° |
| 2026-05-05 21:26 | 50.47229 | 19.08552 | 999 ft | 3 kts | 112° |
| 2026-05-05 21:26 | 50.47233 | 19.08524 | 995 ft | 2 kts | 90° |
| 2026-05-05 21:26 | 50.47233 | 19.08510 | 999 ft | 1 kts | 90° |
| 2026-05-05 21:26 | 50.47233 | 19.08509 | 999 ft | 0 kts | 90° |
| 2026-05-05 21:28 | 50.47233 | 19.08511 | 999 ft | 2 kts | 90° |
| 2026-05-05 21:29 | 50.47236 | 19.08650 | 996 ft | 21 kts | 86° |
| 2026-05-05 21:29 | 50.47240 | 19.08874 | 998 ft | 20 kts | 90° |
| 2026-05-05 21:29 | 50.47238 | 19.09077 | 1000 ft | 18 kts | 91° |
| 2026-05-05 21:29 | 50.47236 | 19.09214 | 1001 ft | 5 kts | 91° |
| 2026-05-05 21:30 | 50.47236 | 19.09262 | 1001 ft | 6 kts | 91° |
| 2026-05-05 21:30 | 50.47257 | 19.09378 | 1002 ft | 12 kts | 34° |
| 2026-05-05 21:30 | 50.47336 | 19.09390 | 1002 ft | 11 kts | 0° |
| 2026-05-05 21:30 | 50.47406 | 19.09395 | 1003 ft | 10 kts | 3° |
| 2026-05-05 21:31 | 50.47470 | 19.09396 | 1003 ft | 6 kts | 0° |
| 2026-05-05 21:31 | 50.47478 | 19.09396 | 1003 ft | 0 kts | 0° |
| 2026-05-05 21:33 | 50.47511 | 19.09397 | 1003 ft | 16 kts | 0° |
| 2026-05-05 21:34 | 50.47596 | 19.09326 | 1003 ft | 13 kts | 284° |
| 2026-05-05 21:34 | 50.47600 | 19.09256 | 1004 ft | 0 kts | 274° |
| 2026-05-05 21:34 | 50.47600 | 19.09253 | 1004 ft | 4 kts | 274° |
| 2026-05-05 21:34 | 50.47601 | 19.08810 | 999 ft | 77 kts | 270° |
| 2026-05-05 21:35 | 50.47605 | 19.07634 | 990 ft | 135 kts | 270° |
| 2026-05-05 21:35 | 50.47596 | 19.05905 | 1007 ft | 176 kts | 266° |
| 2026-05-05 21:35 | 50.47563 | 19.04016 | 1703 ft | 170 kts | 264° |
| 2026-05-05 21:35 | 50.47597 | 19.02166 | 2355 ft | 170 kts | 268° |
| 2026-05-05 21:36 | 50.47649 | 19.00332 | 2956 ft | 166 kts | 263° |
| 2026-05-05 21:36 | 50.47648 | 18.98447 | 3202 ft | 182 kts | 262° |
| 2026-05-05 21:36 | 50.47601 | 18.96364 | 3346 ft | 198 kts | 254° |
| 2026-05-05 21:36 | 50.46924 | 18.94496 | 3476 ft | 207 kts | 216° |
| 2026-05-05 21:37 | 50.45522 | 18.93746 | 3666 ft | 229 kts | 185° |
| 2026-05-05 21:37 | 50.43890 | 18.93694 | 4212 ft | 238 kts | 183° |
| 2026-05-05 21:37 | 50.42223 | 18.93699 | 4962 ft | 241 kts | 183° |
| 2026-05-05 21:37 | 50.40526 | 18.93713 | 5616 ft | 247 kts | 183° |
| 2026-05-05 21:38 | 50.38816 | 18.93723 | 6300 ft | 251 kts | 183° |
| 2026-05-05 21:38 | 50.37032 | 18.93730 | 6948 ft | 256 kts | 182° |
| 2026-05-05 21:38 | 50.35260 | 18.93734 | 7590 ft | 260 kts | 182° |
| 2026-05-05 21:38 | 50.33440 | 18.93734 | 8259 ft | 263 kts | 181° |
| 2026-05-05 21:39 | 50.31591 | 18.93817 | 8911 ft | 268 kts | 172° |
| 2026-05-05 21:39 | 50.29826 | 18.94823 | 9549 ft | 276 kts | 149° |
| 2026-05-05 21:39 | 50.28428 | 18.96917 | 10158 ft | 285 kts | 126° |
| 2026-05-05 21:39 | 50.27475 | 18.99755 | 10413 ft | 306 kts | 118° |
| 2026-05-05 21:40 | 50.26547 | 19.02881 | 10539 ft | 327 kts | 117° |
| 2026-05-05 21:40 | 50.25581 | 19.06222 | 10665 ft | 348 kts | 117° |
| 2026-05-05 21:40 | 50.24564 | 19.09748 | 10909 ft | 361 kts | 117° |
| 2026-05-05 21:40 | 50.23518 | 19.13354 | 11443 ft | 366 kts | 117° |
| 2026-05-05 21:41 | 50.22457 | 19.16985 | 12031 ft | 369 kts | 118° |
| 2026-05-05 21:41 | 50.21377 | 19.20652 | 12604 ft | 373 kts | 118° |
| 2026-05-05 21:41 | 50.20283 | 19.24340 | 13217 ft | 376 kts | 118° |
| 2026-05-05 21:41 | 50.19177 | 19.28061 | 13779 ft | 379 kts | 118° |
| 2026-05-05 21:42 | 50.17915 | 19.31665 | 14280 ft | 380 kts | 123° |
| 2026-05-05 21:42 | 50.16569 | 19.35240 | 14766 ft | 384 kts | 123° |
| 2026-05-05 21:42 | 50.15209 | 19.38835 | 15257 ft | 388 kts | 123° |
| 2026-05-05 21:42 | 50.13828 | 19.42473 | 15726 ft | 391 kts | 123° |
| 2026-05-05 21:43 | 50.12431 | 19.46144 | 16181 ft | 395 kts | 123° |
| 2026-05-05 21:43 | 50.11020 | 19.49844 | 16627 ft | 399 kts | 123° |
| 2026-05-05 21:43 | 50.09596 | 19.53581 | 17068 ft | 403 kts | 123° |
| 2026-05-05 21:43 | 50.08124 | 19.57303 | 17522 ft | 404 kts | 128° |
| 2026-05-05 21:44 | 50.06289 | 19.60580 | 18040 ft | 402 kts | 140° |
| 2026-05-05 21:44 | 50.04067 | 19.63198 | 18464 ft | 401 kts | 151° |
| 2026-05-05 21:44 | 50.01551 | 19.65048 | 18835 ft | 401 kts | 163° |
| 2026-05-05 21:44 | 49.98840 | 19.66123 | 19206 ft | 402 kts | 169° |
| 2026-05-05 21:45 | 49.96091 | 19.67032 | 19583 ft | 406 kts | 169° |
| 2026-05-05 21:45 | 49.93321 | 19.67956 | 19955 ft | 409 kts | 170° |
| 2026-05-05 21:45 | 49.90498 | 19.68496 | 20296 ft | 410 kts | 180° |
| 2026-05-05 21:45 | 49.87655 | 19.68185 | 20659 ft | 411 kts | 191° |
| 2026-05-05 21:46 | 49.84893 | 19.67026 | 21055 ft | 412 kts | 201° |
| 2026-05-05 21:46 | 49.82348 | 19.65112 | 21491 ft | 412 kts | 210° |
| 2026-05-05 21:46 | 49.79840 | 19.62937 | 21943 ft | 413 kts | 210° |
| 2026-05-05 21:46 | 49.77322 | 19.60766 | 22290 ft | 416 kts | 210° |
| 2026-05-05 21:47 | 49.74820 | 19.58621 | 23187 ft | 405 kts | 210° |
| 2026-05-05 21:47 | 49.72366 | 19.56522 | 23795 ft | 401 kts | 211° |
| 2026-05-05 21:47 | 49.69916 | 19.54427 | 24194 ft | 401 kts | 211° |
| 2026-05-05 21:47 | 49.67467 | 19.52358 | 24541 ft | 404 kts | 207° |
| 2026-05-05 21:48 | 49.64838 | 19.50829 | 24876 ft | 408 kts | 196° |
| 2026-05-05 21:48 | 49.62023 | 19.50162 | 25191 ft | 412 kts | 183° |
| 2026-05-05 21:48 | 49.59147 | 19.50429 | 25533 ft | 417 kts | 171° |
| 2026-05-05 21:48 | 49.56361 | 19.51647 | 26060 ft | 416 kts | 159° |
| 2026-05-05 21:49 | 49.53775 | 19.53685 | 26447 ft | 419 kts | 152° |
| 2026-05-05 21:49 | 49.51265 | 19.55973 | 26773 ft | 420 kts | 152° |
| 2026-05-05 21:49 | 49.48742 | 19.58276 | 27046 ft | 423 kts | 152° |
| 2026-05-05 21:49 | 49.46203 | 19.60597 | 27344 ft | 425 kts | 151° |
| 2026-05-05 21:50 | 49.43684 | 19.62896 | 28012 ft | 418 kts | 151° |
| 2026-05-05 21:50 | 49.41182 | 19.65173 | 28353 ft | 420 kts | 151° |
| 2026-05-05 21:50 | 49.38652 | 19.67467 | 28490 ft | 426 kts | 151° |
| 2026-05-05 21:50 | 49.36080 | 19.69791 | 28635 ft | 431 kts | 151° |
| 2026-05-05 21:51 | 49.33473 | 19.72142 | 28781 ft | 437 kts | 151° |
| 2026-05-05 21:51 | 49.30835 | 19.74520 | 28913 ft | 442 kts | 151° |
| 2026-05-05 21:51 | 49.28169 | 19.76921 | 29071 ft | 447 kts | 151° |
| 2026-05-05 21:51 | 49.25467 | 19.79353 | 29212 ft | 452 kts | 151° |
| 2026-05-05 21:52 | 49.19990 | 19.84281 | 29511 ft | 461 kts | 151° |
| 2026-05-05 21:52 | 49.17206 | 19.86781 | 29670 ft | 465 kts | 152° |
| 2026-05-05 21:52 | 49.14408 | 19.89288 | 29833 ft | 468 kts | 151° |
| 2026-05-05 21:53 | 49.11595 | 19.91810 | 30081 ft | 470 kts | 151° |
| 2026-05-05 21:53 | 49.08776 | 19.94335 | 30355 ft | 470 kts | 151° |
| 2026-05-05 21:53 | 49.05956 | 19.96859 | 30658 ft | 469 kts | 151° |
| 2026-05-05 21:53 | 49.03144 | 19.99370 | 30973 ft | 468 kts | 152° |
| 2026-05-05 21:54 | 49.00335 | 20.01872 | 31299 ft | 467 kts | 152° |
| 2026-05-05 21:54 | 48.97534 | 20.04361 | 31634 ft | 465 kts | 152° |
| 2026-05-05 21:54 | 48.94739 | 20.06841 | 31976 ft | 464 kts | 152° |
| 2026-05-05 21:54 | 48.91988 | 20.09280 | 32302 ft | 463 kts | 152° |
| 2026-05-05 21:55 | 48.89210 | 20.11744 | 32619 ft | 462 kts | 151° |
| 2026-05-05 21:55 | 48.86435 | 20.14202 | 32934 ft | 461 kts | 152° |
| 2026-05-05 21:55 | 48.83667 | 20.16649 | 33227 ft | 460 kts | 152° |
| 2026-05-05 21:55 | 48.80897 | 20.19094 | 33529 ft | 460 kts | 152° |
| 2026-05-05 21:56 | 48.78132 | 20.21531 | 33842 ft | 459 kts | 152° |
| 2026-05-05 21:56 | 48.75376 | 20.23957 | 34119 ft | 457 kts | 152° |
| 2026-05-05 21:56 | 48.72627 | 20.26373 | 34370 ft | 457 kts | 152° |
| 2026-05-05 21:56 | 48.69882 | 20.28785 | 34614 ft | 456 kts | 152° |
| 2026-05-05 21:57 | 48.67142 | 20.31191 | 34836 ft | 456 kts | 152° |
| 2026-05-05 21:57 | 48.61661 | 20.35994 | 34923 ft | 453 kts | 152° |
| 2026-05-05 21:58 | 48.56243 | 20.40720 | 34920 ft | 453 kts | 152° |
| 2026-05-05 21:58 | 48.50782 | 20.45466 | 34920 ft | 453 kts | 152° |
| 2026-05-05 21:59 | 48.45322 | 20.50208 | 34917 ft | 453 kts | 152° |
| 2026-05-05 21:59 | 48.40784 | 20.54147 | 34917 ft | 453 kts | 152° |
| 2026-05-05 22:00 | 48.35329 | 20.58869 | 34917 ft | 453 kts | 152° |
| 2026-05-05 22:00 | 48.29813 | 20.63622 | 34908 ft | 453 kts | 152° |
| 2026-05-05 22:01 | 48.24358 | 20.68317 | 34913 ft | 453 kts | 152° |
| 2026-05-05 22:01 | 48.18923 | 20.72985 | 34914 ft | 453 kts | 152° |
| 2026-05-05 22:02 | 48.13448 | 20.77669 | 34914 ft | 453 kts | 152° |
| 2026-05-05 22:02 | 48.07975 | 20.82340 | 34916 ft | 453 kts | 152° |
| 2026-05-05 22:03 | 48.02497 | 20.87013 | 34911 ft | 453 kts | 152° |
| 2026-05-05 22:03 | 47.96999 | 20.91675 | 34913 ft | 454 kts | 152° |
| 2026-05-05 22:04 | 47.91511 | 20.96318 | 34918 ft | 454 kts | 152° |
| 2026-05-05 22:04 | 47.86010 | 21.00965 | 34921 ft | 454 kts | 152° |
| 2026-05-05 22:05 | 47.80507 | 21.05609 | 34929 ft | 454 kts | 152° |
| 2026-05-05 22:05 | 47.75005 | 21.10240 | 34928 ft | 454 kts | 151° |
| 2026-05-05 22:06 | 47.69499 | 21.14872 | 34924 ft | 454 kts | 152° |
| 2026-05-05 22:06 | 47.64027 | 21.19452 | 34924 ft | 455 kts | 152° |
| 2026-05-05 22:07 | 47.58510 | 21.24060 | 34931 ft | 455 kts | 152° |
| 2026-05-05 22:07 | 47.52993 | 21.28656 | 34933 ft | 455 kts | 152° |
| 2026-05-05 22:08 | 47.47478 | 21.33237 | 34930 ft | 455 kts | 152° |
| 2026-05-05 22:08 | 47.41949 | 21.37824 | 34927 ft | 455 kts | 152° |
| 2026-05-05 22:09 | 47.36424 | 21.42387 | 34929 ft | 455 kts | 152° |
| 2026-05-05 22:09 | 47.30900 | 21.46946 | 34930 ft | 455 kts | 152° |
| 2026-05-05 22:10 | 47.25398 | 21.51478 | 34937 ft | 456 kts | 152° |
| 2026-05-05 22:10 | 47.19856 | 21.56029 | 34935 ft | 456 kts | 152° |
| 2026-05-05 22:11 | 47.14317 | 21.60562 | 34937 ft | 456 kts | 152° |
| 2026-05-05 22:11 | 47.08774 | 21.65091 | 34943 ft | 456 kts | 152° |
| 2026-05-05 22:12 | 47.03234 | 21.69622 | 34948 ft | 456 kts | 152° |
| 2026-05-05 22:12 | 46.97717 | 21.74118 | 34947 ft | 456 kts | 152° |
| 2026-05-05 22:13 | 46.92157 | 21.78620 | 34939 ft | 457 kts | 152° |
| 2026-05-05 22:13 | 46.86596 | 21.83111 | 34944 ft | 457 kts | 152° |
| 2026-05-05 22:14 | 46.81034 | 21.87601 | 34948 ft | 457 kts | 152° |
| 2026-05-05 22:14 | 46.75478 | 21.92087 | 34953 ft | 456 kts | 152° |
| 2026-05-05 22:15 | 46.69912 | 21.96555 | 34960 ft | 456 kts | 152° |
| 2026-05-05 22:15 | 46.64349 | 22.01015 | 34970 ft | 456 kts | 152° |
| 2026-05-05 22:16 | 46.58798 | 22.05464 | 34986 ft | 456 kts | 152° |
| 2026-05-05 22:16 | 46.53241 | 22.09902 | 34986 ft | 455 kts | 152° |
| 2026-05-05 22:17 | 46.47685 | 22.14324 | 34995 ft | 455 kts | 152° |
| 2026-05-05 22:17 | 46.42123 | 22.18739 | 34983 ft | 456 kts | 152° |
| 2026-05-05 22:18 | 46.36575 | 22.23201 | 34996 ft | 457 kts | 148° |
| 2026-05-05 22:18 | 46.31733 | 22.29123 | 34993 ft | 458 kts | 136° |
| 2026-05-05 22:19 | 46.27226 | 22.35536 | 35002 ft | 458 kts | 136° |
| 2026-05-05 22:19 | 46.22667 | 22.41983 | 35010 ft | 458 kts | 136° |
| 2026-05-05 22:20 | 46.18102 | 22.48418 | 35013 ft | 458 kts | 136° |
| 2026-05-05 22:20 | 46.13527 | 22.54853 | 35011 ft | 460 kts | 136° |
| 2026-05-05 22:21 | 46.08946 | 22.61283 | 35006 ft | 460 kts | 136° |
| 2026-05-05 22:21 | 46.04351 | 22.67724 | 35018 ft | 461 kts | 136° |
| 2026-05-05 22:22 | 45.99755 | 22.74151 | 35027 ft | 461 kts | 136° |
| 2026-05-05 22:22 | 45.95141 | 22.80586 | 35022 ft | 462 kts | 136° |
| 2026-05-05 22:23 | 45.90549 | 22.86972 | 35028 ft | 463 kts | 136° |
| 2026-05-05 22:23 | 45.85922 | 22.93396 | 35026 ft | 463 kts | 136° |
| 2026-05-05 22:24 | 45.81290 | 22.99816 | 35033 ft | 463 kts | 136° |
| 2026-05-05 22:24 | 45.76648 | 23.06221 | 35042 ft | 464 kts | 136° |
| 2026-05-05 22:25 | 45.71989 | 23.12617 | 35042 ft | 464 kts | 136° |
| 2026-05-05 22:25 | 45.67321 | 23.19016 | 35053 ft | 464 kts | 136° |
| 2026-05-05 22:26 | 45.62658 | 23.25412 | 35055 ft | 464 kts | 136° |
| 2026-05-05 22:26 | 45.57990 | 23.31801 | 35071 ft | 465 kts | 135° |
| 2026-05-05 22:27 | 45.53315 | 23.38171 | 35065 ft | 465 kts | 136° |
| 2026-05-05 22:27 | 45.48627 | 23.44547 | 35066 ft | 466 kts | 136° |
| 2026-05-05 22:28 | 45.43937 | 23.50923 | 35069 ft | 466 kts | 136° |
| 2026-05-05 22:28 | 45.39239 | 23.57286 | 35063 ft | 466 kts | 136° |
| 2026-05-05 22:29 | 45.34571 | 23.63597 | 35064 ft | 466 kts | 136° |
| 2026-05-05 22:29 | 45.29862 | 23.69939 | 35064 ft | 466 kts | 136° |
| 2026-05-05 22:30 | 45.25155 | 23.76269 | 35054 ft | 467 kts | 136° |
| 2026-05-05 22:30 | 45.20438 | 23.82597 | 35065 ft | 467 kts | 136° |
| 2026-05-05 22:31 | 45.15698 | 23.88933 | 35044 ft | 468 kts | 136° |
| 2026-05-05 22:31 | 45.10954 | 23.95258 | 35047 ft | 469 kts | 136° |
| 2026-05-05 22:32 | 45.06207 | 24.01574 | 35044 ft | 469 kts | 136° |
| 2026-05-05 22:32 | 45.01457 | 24.07885 | 35042 ft | 469 kts | 136° |
| 2026-05-05 22:33 | 44.96692 | 24.14192 | 35036 ft | 469 kts | 136° |
| 2026-05-05 22:33 | 44.91925 | 24.20495 | 35029 ft | 470 kts | 136° |
| 2026-05-05 22:34 | 44.87145 | 24.26791 | 35026 ft | 470 kts | 136° |
| 2026-05-05 22:34 | 44.82362 | 24.33085 | 35030 ft | 471 kts | 136° |
| 2026-05-05 22:35 | 44.77577 | 24.39372 | 35011 ft | 471 kts | 136° |
| 2026-05-05 22:35 | 44.72811 | 24.45621 | 35010 ft | 471 kts | 136° |
| 2026-05-05 22:36 | 44.68003 | 24.51896 | 35000 ft | 472 kts | 136° |
| 2026-05-05 22:36 | 44.63192 | 24.58166 | 35005 ft | 472 kts | 136° |
| 2026-05-05 22:37 | 44.58369 | 24.64440 | 34999 ft | 473 kts | 136° |
| 2026-05-05 22:37 | 44.53537 | 24.70701 | 34999 ft | 473 kts | 136° |
| 2026-05-05 22:38 | 44.48700 | 24.76958 | 34999 ft | 473 kts | 136° |
| 2026-05-05 22:38 | 44.43865 | 24.83206 | 35006 ft | 473 kts | 136° |
| 2026-05-05 22:39 | 44.39022 | 24.89455 | 35002 ft | 474 kts | 136° |
| 2026-05-05 22:39 | 44.34164 | 24.95690 | 34994 ft | 474 kts | 136° |
| 2026-05-05 22:40 | 44.29302 | 25.01922 | 35011 ft | 475 kts | 136° |
| 2026-05-05 22:40 | 44.24443 | 25.08125 | 35010 ft | 475 kts | 136° |
| 2026-05-05 22:41 | 44.19570 | 25.14336 | 35008 ft | 475 kts | 136° |
| 2026-05-05 22:41 | 44.14691 | 25.20555 | 35012 ft | 475 kts | 136° |
| 2026-05-05 22:42 | 44.09813 | 25.26762 | 35028 ft | 475 kts | 136° |
| 2026-05-05 22:42 | 44.04957 | 25.32898 | 34553 ft | 475 kts | 136° |
| 2026-05-05 22:42 | 44.02508 | 25.35981 | 33881 ft | 476 kts | 136° |
| 2026-05-05 22:43 | 44.00051 | 25.39073 | 33121 ft | 478 kts | 136° |
| 2026-05-05 22:43 | 43.97661 | 25.42281 | 32366 ft | 477 kts | 129° |
| 2026-05-05 22:43 | 43.95570 | 25.45859 | 31617 ft | 478 kts | 126° |
| 2026-05-05 22:43 | 43.93510 | 25.49489 | 30873 ft | 480 kts | 126° |
| 2026-05-05 22:44 | 43.91440 | 25.53124 | 30269 ft | 480 kts | 126° |
| 2026-05-05 22:44 | 43.89361 | 25.56759 | 29990 ft | 481 kts | 126° |
| 2026-05-05 22:44 | 43.87276 | 25.60393 | 29163 ft | 482 kts | 126° |
| 2026-05-05 22:44 | 43.85187 | 25.64029 | 28296 ft | 483 kts | 126° |
| 2026-05-05 22:45 | 43.83088 | 25.67673 | 27476 ft | 484 kts | 126° |
| 2026-05-05 22:45 | 43.80992 | 25.71303 | 26873 ft | 479 kts | 126° |
| 2026-05-05 22:45 | 43.78923 | 25.74868 | 26303 ft | 474 kts | 126° |
| 2026-05-05 22:45 | 43.76880 | 25.78408 | 25745 ft | 468 kts | 124° |
| 2026-05-05 22:46 | 43.75131 | 25.82154 | 25171 ft | 459 kts | 115° |
| 2026-05-05 22:46 | 43.73859 | 25.86154 | 24609 ft | 451 kts | 106° |
| 2026-05-05 22:46 | 43.72984 | 25.89684 | 24117 ft | 447 kts | 106° |
| 2026-05-05 22:46 | 43.71975 | 25.93733 | 23552 ft | 443 kts | 106° |
| 2026-05-05 22:47 | 43.70970 | 25.97734 | 22908 ft | 439 kts | 106° |
| 2026-05-05 22:47 | 43.69966 | 26.01702 | 22279 ft | 435 kts | 107° |
| 2026-05-05 22:47 | 43.68969 | 26.05632 | 21673 ft | 431 kts | 107° |
| 2026-05-05 22:47 | 43.67979 | 26.09527 | 21065 ft | 427 kts | 107° |
| 2026-05-05 22:48 | 43.67000 | 26.13374 | 20471 ft | 423 kts | 107° |
| 2026-05-05 22:48 | 43.66031 | 26.17185 | 19881 ft | 419 kts | 107° |
| 2026-05-05 22:48 | 43.65067 | 26.20977 | 19309 ft | 415 kts | 107° |
| 2026-05-05 22:48 | 43.64112 | 26.24728 | 18747 ft | 412 kts | 107° |
| 2026-05-05 22:49 | 43.63166 | 26.28434 | 18180 ft | 408 kts | 107° |
| 2026-05-05 22:49 | 43.62235 | 26.32079 | 17569 ft | 405 kts | 107° |
| 2026-05-05 22:49 | 43.61606 | 26.34540 | 17178 ft | 402 kts | 107° |
| 2026-05-05 22:49 | 43.60382 | 26.39321 | 16460 ft | 397 kts | 107° |
| 2026-05-05 22:50 | 43.59465 | 26.42890 | 15910 ft | 393 kts | 107° |
| 2026-05-05 22:50 | 43.58557 | 26.46421 | 15389 ft | 389 kts | 107° |
| 2026-05-05 22:50 | 43.57947 | 26.48786 | 15047 ft | 386 kts | 106° |
| 2026-05-05 22:50 | 43.57060 | 26.52217 | 14549 ft | 382 kts | 106° |
| 2026-05-05 22:51 | 43.56161 | 26.55695 | 14055 ft | 379 kts | 106° |
| 2026-05-05 22:51 | 43.55291 | 26.59050 | 13530 ft | 375 kts | 106° |
| 2026-05-05 22:51 | 43.54417 | 26.62426 | 12975 ft | 372 kts | 106° |
| 2026-05-05 22:51 | 43.53553 | 26.65772 | 12415 ft | 370 kts | 106° |
| 2026-05-05 22:52 | 43.52690 | 26.69107 | 11883 ft | 368 kts | 106° |
| 2026-05-05 22:52 | 43.51839 | 26.72371 | 11720 ft | 355 kts | 106° |
| 2026-05-05 22:52 | 43.51014 | 26.75508 | 11570 ft | 342 kts | 105° |
| 2026-05-05 22:52 | 43.50218 | 26.78532 | 11447 ft | 330 kts | 105° |
| 2026-05-05 22:53 | 43.49451 | 26.81453 | 11321 ft | 318 kts | 105° |
| 2026-05-05 22:53 | 43.48714 | 26.84262 | 11197 ft | 307 kts | 105° |
| 2026-05-05 22:53 | 43.47999 | 26.86979 | 11020 ft | 298 kts | 106° |
| 2026-05-05 22:53 | 43.47191 | 26.89588 | 10706 ft | 297 kts | 111° |
| 2026-05-05 22:54 | 43.46234 | 26.92108 | 10360 ft | 296 kts | 113° |
| 2026-05-05 22:54 | 43.45259 | 26.94601 | 9992 ft | 295 kts | 113° |
| 2026-05-05 22:54 | 43.44286 | 26.97081 | 9600 ft | 294 kts | 113° |
| 2026-05-05 22:54 | 43.43315 | 26.99545 | 9222 ft | 292 kts | 114° |
| 2026-05-05 22:55 | 43.42349 | 27.01997 | 8854 ft | 290 kts | 114° |
| 2026-05-05 22:55 | 43.41395 | 27.04417 | 8541 ft | 286 kts | 114° |
| 2026-05-05 22:55 | 43.40451 | 27.06811 | 8195 ft | 283 kts | 114° |
| 2026-05-05 22:55 | 43.39517 | 27.09182 | 7832 ft | 281 kts | 114° |
| 2026-05-05 22:56 | 43.38587 | 27.11538 | 7473 ft | 279 kts | 114° |
| 2026-05-05 22:56 | 43.37661 | 27.13873 | 7118 ft | 277 kts | 114° |
| 2026-05-05 22:56 | 43.36746 | 27.16183 | 6994 ft | 275 kts | 114° |
| 2026-05-05 22:56 | 43.35831 | 27.18503 | 7006 ft | 276 kts | 114° |
| 2026-05-05 22:57 | 43.34923 | 27.20805 | 7004 ft | 277 kts | 114° |
| 2026-05-05 22:57 | 43.34005 | 27.23125 | 7006 ft | 277 kts | 115° |
| 2026-05-05 22:57 | 43.33080 | 27.25452 | 7007 ft | 277 kts | 115° |
| 2026-05-05 22:57 | 43.32156 | 27.27772 | 7005 ft | 277 kts | 115° |
| 2026-05-05 22:58 | 43.31230 | 27.30093 | 7007 ft | 277 kts | 115° |
| 2026-05-05 22:58 | 43.30308 | 27.32411 | 7010 ft | 276 kts | 114° |
| 2026-05-05 22:58 | 43.29390 | 27.34723 | 7008 ft | 276 kts | 114° |
| 2026-05-05 22:58 | 43.28467 | 27.37038 | 7010 ft | 276 kts | 114° |
| 2026-05-05 22:59 | 43.27545 | 27.39353 | 7009 ft | 276 kts | 114° |
| 2026-05-05 22:59 | 43.26625 | 27.41656 | 7009 ft | 276 kts | 114° |
| 2026-05-05 22:59 | 43.25702 | 27.43963 | 7009 ft | 276 kts | 114° |
| 2026-05-05 22:59 | 43.24778 | 27.46272 | 7009 ft | 276 kts | 114° |
| 2026-05-05 23:00 | 43.22929 | 27.50877 | 7011 ft | 276 kts | 114° |
| 2026-05-05 23:00 | 43.22001 | 27.53183 | 7009 ft | 275 kts | 114° |
| 2026-05-05 23:00 | 43.21074 | 27.55493 | 7012 ft | 276 kts | 114° |
| 2026-05-05 23:01 | 43.20149 | 27.57795 | 7011 ft | 276 kts | 114° |
| 2026-05-05 23:01 | 43.19226 | 27.60093 | 7019 ft | 276 kts | 114° |
| 2026-05-05 23:01 | 43.18303 | 27.62390 | 7012 ft | 275 kts | 114° |
| 2026-05-05 23:01 | 43.17381 | 27.64684 | 7008 ft | 275 kts | 114° |
| 2026-05-05 23:02 | 43.16579 | 27.67048 | 7009 ft | 272 kts | 106° |
| 2026-05-05 23:02 | 43.16030 | 27.69504 | 7008 ft | 266 kts | 98° |
| 2026-05-05 23:02 | 43.15731 | 27.71909 | 7003 ft | 247 kts | 92° |
| 2026-05-05 23:02 | 43.15533 | 27.74191 | 7004 ft | 238 kts | 92° |
| 2026-05-05 23:03 | 43.15337 | 27.76436 | 7011 ft | 237 kts | 92° |
| 2026-05-05 23:03 | 43.15142 | 27.78642 | 7008 ft | 236 kts | 92° |
| 2026-05-05 23:03 | 43.14941 | 27.80868 | 7008 ft | 235 kts | 92° |
| 2026-05-05 23:03 | 43.14740 | 27.83084 | 7008 ft | 234 kts | 92° |
| 2026-05-05 23:04 | 43.14539 | 27.85298 | 7014 ft | 234 kts | 92° |
| 2026-05-05 23:04 | 43.14342 | 27.87508 | 7007 ft | 234 kts | 92° |
| 2026-05-05 23:04 | 43.14145 | 27.89727 | 6950 ft | 235 kts | 92° |
| 2026-05-05 23:04 | 43.13947 | 27.91938 | 6819 ft | 233 kts | 92° |
| 2026-05-05 23:05 | 43.13750 | 27.94138 | 6719 ft | 233 kts | 91° |
| 2026-05-05 23:05 | 43.13551 | 27.96331 | 6633 ft | 232 kts | 91° |
| 2026-05-05 23:05 | 43.13352 | 27.98514 | 6504 ft | 230 kts | 91° |
| 2026-05-05 23:05 | 43.13155 | 28.00687 | 6373 ft | 230 kts | 91° |
| 2026-05-05 23:06 | 43.12959 | 28.02848 | 6246 ft | 229 kts | 92° |
| 2026-05-05 23:06 | 43.12761 | 28.05018 | 6115 ft | 226 kts | 92° |
| 2026-05-05 23:06 | 43.12569 | 28.07094 | 5993 ft | 212 kts | 92° |
| 2026-05-05 23:06 | 43.12389 | 28.09020 | 5873 ft | 199 kts | 92° |
| 2026-05-05 23:07 | 43.12216 | 28.10893 | 5743 ft | 197 kts | 91° |
| 2026-05-05 23:07 | 43.12049 | 28.12751 | 5619 ft | 197 kts | 91° |
| 2026-05-05 23:07 | 43.12173 | 28.14563 | 5466 ft | 189 kts | 66° |
| 2026-05-05 23:07 | 43.12877 | 28.15950 | 5399 ft | 170 kts | 39° |
| 2026-05-05 23:08 | 43.13908 | 28.16666 | 5366 ft | 167 kts | 14° |
| 2026-05-05 23:08 | 43.15052 | 28.16652 | 5329 ft | 170 kts | 349° |
| 2026-05-05 23:08 | 43.16193 | 28.16194 | 5282 ft | 171 kts | 348° |
| 2026-05-05 23:08 | 43.17336 | 28.15737 | 5156 ft | 171 kts | 348° |
| 2026-05-05 23:09 | 43.18482 | 28.15273 | 4995 ft | 172 kts | 345° |
| 2026-05-05 23:09 | 43.19523 | 28.14437 | 4809 ft | 177 kts | 322° |
| 2026-05-05 23:09 | 43.20279 | 28.13079 | 4590 ft | 183 kts | 300° |
| 2026-05-05 23:09 | 43.20609 | 28.11376 | 4330 ft | 188 kts | 280° |
| 2026-05-05 23:10 | 43.20764 | 28.09601 | 4064 ft | 187 kts | 281° |
| 2026-05-05 23:10 | 43.20926 | 28.07831 | 3822 ft | 187 kts | 281° |
| 2026-05-05 23:10 | 43.21088 | 28.06065 | 3564 ft | 186 kts | 281° |
| 2026-05-05 23:10 | 43.21248 | 28.04306 | 3315 ft | 186 kts | 280° |
| 2026-05-05 23:11 | 43.21407 | 28.02554 | 3072 ft | 185 kts | 280° |
| 2026-05-05 23:11 | 43.21563 | 28.00820 | 2824 ft | 181 kts | 277° |
| 2026-05-05 23:11 | 43.21716 | 27.99122 | 2590 ft | 177 kts | 277° |
| 2026-05-05 23:11 | 43.21865 | 27.97461 | 2361 ft | 174 kts | 277° |
| 2026-05-05 23:12 | 43.22010 | 27.95838 | 2136 ft | 169 kts | 276° |
| 2026-05-05 23:12 | 43.22150 | 27.94257 | 1933 ft | 165 kts | 276° |
| 2026-05-05 23:12 | 43.22285 | 27.92747 | 1709 ft | 155 kts | 276° |
| 2026-05-05 23:12 | 43.22402 | 27.91435 | 1471 ft | 151 kts | 276° |
| 2026-05-05 23:13 | 43.22519 | 27.90149 | 1262 ft | 148 kts | 277° |
| 2026-05-05 23:13 | 43.22645 | 27.88750 | 1031 ft | 145 kts | 277° |
| 2026-05-05 23:13 | 43.22765 | 27.87407 | 812 ft | 143 kts | 278° |
| 2026-05-05 23:13 | 43.22885 | 27.86061 | 592 ft | 142 kts | 277° |
| 2026-05-05 23:14 | 43.22986 | 27.84724 | 384 ft | 141 kts | 276° |
| 2026-05-05 23:14 | 43.23114 | 27.83375 | 237 ft | 137 kts | 278° |
| 2026-05-05 23:14 | 43.23213 | 27.82326 | 231 ft | 83 kts | 277° |
| 2026-05-05 23:14 | 43.23258 | 27.81804 | 227 ft | 36 kts | 276° |
| 2026-05-05 23:15 | 43.23288 | 27.81476 | 224 ft | 34 kts | 278° |
| 2026-05-05 23:15 | 43.23317 | 27.81159 | 223 ft | 30 kts | 277° |
| 2026-05-05 23:15 | 43.23414 | 27.80964 | 222 ft | 16 kts | 331° |
| 2026-05-05 23:15 | 43.23475 | 27.80924 | 222 ft | 0 kts | 335° |
| 2026-05-05 23:16 | 43.23499 | 27.80921 | 222 ft | 5 kts | 1° |
| 2026-05-05 23:16 | 43.23530 | 27.80930 | 223 ft | 4 kts | 18° |
| 2026-05-05 23:16 | 43.23562 | 27.80964 | 224 ft | 6 kts | 54° |
| 2026-05-05 23:17 | 43.23572 | 27.81011 | 223 ft | 4 kts | 81° |
| 2026-05-05 23:17 | 43.23575 | 27.81045 | 223 ft | 3 kts | 90° |
| 2026-05-05 23:17 | 43.23574 | 27.81061 | 223 ft | 0 kts | 93° |
| 2026-05-05 23:18 | 43.23572 | 27.81088 | 223 ft | 9 kts | 95° |
| 2026-05-05 23:18 | 43.23564 | 27.81207 | 224 ft | 17 kts | 96° |
| 2026-05-05 23:18 | 43.23546 | 27.81408 | 225 ft | 21 kts | 95° |
| 2026-05-05 23:18 | 43.23532 | 27.81579 | 225 ft | 17 kts | 97° |
| 2026-05-05 23:19 | 43.23517 | 27.81734 | 226 ft | 16 kts | 97° |
| 2026-05-05 23:19 | 43.23504 | 27.81878 | 227 ft | 15 kts | 97° |
| 2026-05-05 23:19 | 43.23492 | 27.82019 | 227 ft | 17 kts | 97° |
| 2026-05-05 23:19 | 43.23480 | 27.82184 | 228 ft | 17 kts | 92° |
| 2026-05-05 23:20 | 43.23477 | 27.82337 | 229 ft | 15 kts | 95° |
| 2026-05-05 23:20 | 43.23463 | 27.82479 | 229 ft | 16 kts | 97° |
| 2026-05-05 23:20 | 43.23447 | 27.82672 | 230 ft | 11 kts | 97° |
| 2026-05-05 23:20 | 43.23447 | 27.82732 | 231 ft | 3 kts | 76° |
| 2026-05-05 23:21 | 43.23450 | 27.82741 | 231 ft | 0 kts | 70° |
| 2026-05-05 23:21 | 43.23442 | 27.82777 | 231 ft | 13 kts | 105° |
| 2026-05-05 23:21 | 43.23445 | 27.82917 | 234 ft | 15 kts | 47° |
| 2026-05-05 23:21 | 43.23532 | 27.82912 | 231 ft | 13 kts | 328° |
| 2026-05-05 23:22 | 43.23553 | 27.82817 | 233 ft | 10 kts | 246° |
| 2026-05-05 23:22 | 43.23523 | 27.82775 | 231 ft | 1 kts | 207° |
| 2026-05-05 23:22 | 43.23511 | 27.82780 | 231 ft | 6 kts | 151° |
| 2026-05-05 23:22 | 43.23506 | 27.82854 | 231 ft | 8 kts | 70° |
| 2026-05-05 23:23 | 43.23539 | 27.82902 | 231 ft | 6 kts | 44° |
| 2026-05-05 23:23 | 43.23565 | 27.82905 | 231 ft | 1 kts | 306° |
| 2026-05-05 23:23 | 43.23561 | 27.82897 | 231 ft | 1 kts | 243° |
| 2026-05-05 23:23 | 43.23529 | 27.82851 | 231 ft | 8 kts | 221° |
| 2026-05-05 23:24 | 43.23496 | 27.82812 | 233 ft | 4 kts | 220° |
| 2026-05-05 23:24 | 43.23489 | 27.82804 | 231 ft | 0 kts | 220° |